Time;durP1;ratioP1;P1;durP2;ratioP2;P2;SDS_P1;SDS_P2;PMS_P1;PMS_P2;Temp;Humidity;BMP_temperature;BMP_pressure;BME280_temperature;BME280_humidity;BME280_pressure;Samples;Min_cycle;Max_cycle;Signal;HPM_P1;HPM_P2
2022/12/05 00:02:25;;;;;;;13.30;4.57;;;;;;;11.31;73.66;100189.34;6250216;22;20149;-89
2022/12/05 00:04:50;;;;;;;12.07;5.00;;;;;;;11.31;73.61;100185.84;6250208;22;20176;-89
2022/12/05 00:07:17;;;;;;;18.80;5.80;;;;;;;11.34;73.69;100191.84;6276952;22;20195;-89
2022/12/05 00:09:43;;;;;;;15.50;4.93;;;;;;;11.31;73.51;100191.97;6276837;22;20239;-89
2022/12/05 00:12:09;;;;;;;12.10;4.60;;;;;;;11.29;74.11;100191.19;6276907;22;20151;-89
2022/12/05 00:14:34;;;;;;;12.60;5.30;;;;;;;11.22;73.82;100189.69;6277204;22;20164;-90
2022/12/05 00:17:01;;;;;;;16.80;5.03;;;;;;;11.18;74.11;100190.72;6276899;22;20166;-89
2022/12/05 00:19:27;;;;;;;11.27;5.00;;;;;;;11.11;74.56;100189.22;6276809;22;20195;-89
2022/12/05 00:21:53;;;;;;;13.63;5.17;;;;;;;11.08;74.59;100192.00;6276594;22;20188;-88
2022/12/05 00:24:19;;;;;;;11.67;5.33;;;;;;;11.11;74.62;100199.72;6276720;22;20153;-89
2022/12/05 00:26:46;;;;;;;9.87;4.47;;;;;;;11.18;74.84;100195.13;6277053;22;20217;-89
2022/12/05 00:29:13;;;;;;;12.70;5.63;;;;;;;11.22;74.61;100197.56;6276746;22;20171;-89
2022/12/05 00:31:39;;;;;;;10.93;5.23;;;;;;;11.20;74.92;100196.75;6277374;22;20170;-89
2022/12/05 00:34:04;;;;;;;10.83;5.30;;;;;;;11.24;74.87;100198.34;6276713;22;20568;-88
2022/12/05 00:36:34;;;;;;;15.03;5.13;;;;;;;11.29;74.98;100198.19;6276705;22;20641;-89
2022/12/05 00:39:03;;;;;;;12.90;4.67;;;;;;;11.30;74.79;100195.50;6249641;22;20156;-88
2022/12/05 00:41:29;;;;;;;11.80;4.60;;;;;;;11.32;74.70;100198.06;6276642;22;20244;-89
2022/12/05 00:43:57;;;;;;;16.97;5.87;;;;;;;11.37;74.75;100185.63;6276587;22;20168;-88
2022/12/05 00:46:26;;;;;;;34.90;5.73;;;;;;;11.40;74.38;100186.34;6249726;22;20647;-88
2022/12/05 00:48:55;;;;;;;11.43;5.23;;;;;;;11.43;74.34;100186.22;6277217;22;20149;-88
2022/12/05 00:51:32;;;;;;;10.83;5.27;;;;;;;11.45;74.48;100179.13;6276457;22;20171;-89
2022/12/05 00:54:00;;;;;;;9.30;4.07;;;;;;;11.42;74.18;100189.78;6277251;22;20559;-89
2022/12/05 00:56:29;;;;;;;9.90;4.07;;;;;;;11.38;73.81;100182.94;6249809;22;20475;-89
2022/12/05 00:58:56;;;;;;;10.37;4.47;;;;;;;11.34;74.02;100186.59;6276483;22;20156;-89
2022/12/05 01:01:28;;;;;;;11.20;4.83;;;;;;;11.35;74.08;100179.56;6276536;22;20228;-88
2022/12/05 01:03:56;;;;;;;8.40;4.83;;;;;;;11.35;73.87;100169.91;6277133;22;20140;-88
2022/12/05 01:06:25;;;;;;;12.17;4.73;;;;;;;11.41;74.02;100169.69;6276730;22;20179;-89
2022/12/05 01:08:55;;;;;;;10.20;3.90;;;;;;;11.40;73.76;100172.38;6249627;22;20172;-89
2022/12/05 01:11:22;;;;;;;12.63;5.60;;;;;;;11.35;74.01;100183.03;6276808;22;20143;-88
2022/12/05 01:13:47;;;;;;;10.07;5.13;;;;;;;11.36;74.40;100181.28;6276396;22;20152;-89
2022/12/05 01:16:16;;;;;;;12.87;5.07;;;;;;;11.41;73.99;100176.69;6276362;22;20515;-89
2022/12/05 01:18:43;;;;;;;8.97;4.57;;;;;;;11.42;74.18;100178.44;6276417;22;20223;-89
2022/12/05 01:21:09;;;;;;;8.20;3.80;;;;;;;11.45;74.26;100173.06;6276413;22;20144;-89
2022/12/05 01:23:36;;;;;;;10.10;3.73;;;;;;;11.44;74.07;100174.81;6244393;23;20506;-89
2022/12/05 01:26:09;;;;;;;9.83;4.47;;;;;;;11.46;74.07;100174.75;6246045;22;20173;-88
2022/12/05 01:28:36;;;;;;;10.60;4.77;;;;;;;11.47;74.03;100177.34;6246150;22;20144;-89
2022/12/05 01:31:15;;;;;;;7.53;3.87;;;;;;;11.43;74.33;100175.72;6246028;22;20204;-89
2022/12/05 01:33:41;;;;;;;10.30;3.77;;;;;;;11.51;74.48;100170.16;6246073;22;20129;-89
2022/12/05 01:36:11;;;;;;;10.97;3.80;;;;;;;11.50;73.74;100166.69;6246420;22;20184;-89
2022/12/05 01:38:39;;;;;;;9.50;3.67;;;;;;;11.51;73.80;100167.53;6246130;22;20467;-89
2022/12/05 01:41:07;;;;;;;8.27;3.60;;;;;;;11.53;73.58;100169.19;6244520;23;20199;-88
2022/12/05 01:43:32;;;;;;;7.97;3.40;;;;;;;11.57;73.52;100156.81;6245718;22;20146;-88
2022/12/05 01:45:59;;;;;;;7.60;3.70;;;;;;;11.58;73.33;100167.22;6245601;22;20177;-89
2022/12/05 01:48:34;;;;;;;11.13;4.17;;;;;;;11.53;73.37;100163.09;6245707;22;20145;-89
2022/12/05 01:51:01;;;;;;;9.20;4.00;;;;;;;11.53;73.30;100161.31;6246719;22;20137;-89
2022/12/05 01:53:28;;;;;;;7.00;3.20;;;;;;;11.51;73.97;100159.66;6246435;23;20494;-88
2022/12/05 01:55:56;;;;;;;8.90;3.90;;;;;;;11.53;73.81;100161.31;6248005;22;20145;-89
2022/12/05 01:58:27;;;;;;;7.77;3.13;;;;;;;11.54;73.89;100162.16;6246331;23;20153;-88
2022/12/05 02:00:53;;;;;;;8.07;3.07;;;;;;;11.57;73.53;100156.81;6246422;23;20561;-89
2022/12/05 02:03:19;;;;;;;8.97;3.63;;;;;;;11.63;73.31;100141.63;6246310;23;20165;-89
2022/12/05 02:05:49;;;;;;;9.40;3.63;;;;;;;11.71;72.98;100141.38;6246301;23;20562;-88
2022/12/05 02:08:17;;;;;;;6.10;3.63;;;;;;;11.70;72.87;100145.78;6247925;22;20149;-89
2022/12/05 02:10:48;;;;;;;15.53;3.80;;;;;;;11.67;72.56;100137.13;6247475;22;20153;-89
2022/12/05 02:13:32;;;;;;;7.53;3.83;;;;;;;11.67;72.15;100137.97;6246231;23;20565;-88
2022/12/05 02:16:13;;;;;;;9.47;4.67;;;;;;;11.60;72.79;100131.28;6247388;23;20236;-89
2022/12/05 02:18:59;;;;;;;7.73;3.80;;;;;;;11.61;72.80;100132.13;6247726;22;20133;-88
2022/12/05 02:21:50;;;;;;;9.20;4.03;;;;;;;11.58;72.85;100122.59;6250360;22;20148;-89
2022/12/05 02:24:37;;;;;;;8.87;3.63;;;;;;;11.57;72.92;100126.16;6277922;22;20170;-89
2022/12/05 02:27:23;;;;;;;7.07;3.43;;;;;;;11.61;72.71;100132.13;6278255;22;20141;-88
2022/12/05 02:30:12;;;;;;;6.23;3.20;;;;;;;11.54;72.40;100130.66;6278287;22;20129;-88
2022/12/05 02:32:59;;;;;;;7.43;3.47;;;;;;;11.50;72.63;100132.53;6276889;22;20160;-88
2022/12/05 02:35:51;;;;;;;6.77;2.97;;;;;;;11.53;72.98;100134.22;6251108;22;20478;-89
2022/12/05 02:38:43;;;;;;;6.93;3.40;;;;;;;11.56;72.75;100121.81;6261047;22;20157;-88
2022/12/05 02:41:32;;;;;;;6.17;3.60;;;;;;;11.59;72.50;100128.69;6278113;22;20140;-89
2022/12/05 02:44:12;;;;;;;6.10;3.10;;;;;;;11.56;72.67;100134.94;6278119;22;20136;-88
2022/12/05 02:46:41;;;;;;;7.13;3.80;;;;;;;11.46;72.54;100138.84;6277666;22;20183;-89
2022/12/05 02:49:16;;;;;;;7.83;3.70;;;;;;;11.44;72.88;100127.56;6278024;22;20148;-88
2022/12/05 02:51:50;;;;;;;7.37;3.53;;;;;;;11.45;73.14;100125.81;6278039;22;20140;-89
2022/12/05 02:54:21;;;;;;;6.03;2.43;;;;;;;11.47;73.21;100127.44;6277999;22;20541;-89
2022/12/05 02:56:49;;;;;;;7.17;3.40;;;;;;;11.43;73.38;100133.72;6278020;22;20137;-89
2022/12/05 02:59:15;;;;;;;7.37;4.03;;;;;;;11.40;73.11;100131.22;6277907;22;20148;-89
2022/12/05 03:01:45;;;;;;;7.87;3.00;;;;;;;11.43;73.07;100133.72;6277640;22;20228;-88
2022/12/05 03:04:12;;;;;;;6.60;3.33;;;;;;;11.36;73.08;100131.41;6277853;22;20128;-88
2022/12/05 03:06:52;;;;;;;6.13;3.30;;;;;;;11.35;72.73;100124.44;6250659;22;20273;-89
2022/12/05 03:09:26;;;;;;;8.20;2.97;;;;;;;11.35;72.59;100127.91;6277867;22;20219;-89
2022/12/05 03:12:17;;;;;;;5.97;3.10;;;;;;;11.32;73.10;100135.91;6250733;22;20155;-88
2022/12/05 03:14:49;;;;;;;23.13;6.50;;;;;;;11.12;73.75;100148.97;6277412;22;20159;-88
2022/12/05 03:17:24;;;;;;;8.00;3.90;;;;;;;11.06;74.39;100152.69;6277423;22;20250;-88
2022/12/05 03:20:08;;;;;;;11.20;5.00;;;;;;;11.04;74.33;100144.03;6277741;22;20551;-89
2022/12/05 03:23:06;;;;;;;8.13;4.23;;;;;;;11.15;73.95;100140.97;6245422;23;20187;-88
2022/12/05 03:25:40;;;;;;;9.27;3.27;;;;;;;11.10;73.41;100140.31;6230377;23;20620;-89
2022/12/05 03:28:27;;;;;;;8.67;3.63;;;;;;;10.99;74.07;100143.34;6247159;22;20195;-89
2022/12/05 03:30:55;;;;;;;14.23;4.33;;;;;;;10.85;74.37;100139.50;6247025;22;20147;-88
2022/12/05 03:33:31;;;;;;;7.83;3.57;;;;;;;10.72;74.96;100127.78;6245496;23;20163;-89
2022/12/05 03:36:14;;;;;;;7.10;3.03;;;;;;;10.67;75.55;100119.22;6247006;22;20183;-89
2022/12/05 03:39:00;;;;;;;7.60;3.00;;;;;;;10.63;75.75;100128.13;6245474;23;20145;-88
2022/12/05 03:41:26;;;;;;;7.67;3.50;;;;;;;10.39;76.48;100125.50;6247319;23;20150;-88
2022/12/05 03:43:59;;;;;;;7.93;3.80;;;;;;;10.26;77.48;100126.84;6246947;22;20149;-89
2022/12/05 03:47:04;;;;;;;9.43;4.00;;;;;;;10.28;77.18;100126.78;6246925;23;20188;-88
2022/12/05 03:49:42;;;;;;;9.27;5.13;;;;;;;10.39;76.88;100132.50;6247579;22;20130;-88
2022/12/05 03:52:30;;;;;;;7.77;4.37;;;;;;;10.39;76.83;100130.75;6246891;22;20190;-89
2022/12/05 03:55:02;;;;;;;6.37;4.07;;;;;;;10.38;76.74;100128.16;6246461;22;20149;-88
2022/12/05 03:57:38;;;;;;;11.03;4.30;;;;;;;10.49;76.29;100132.13;6245246;23;20488;-88
2022/12/05 04:00:19;;;;;;;7.70;3.50;;;;;;;10.47;76.35;100138.31;6245285;23;20148;-89
2022/12/05 04:02:48;;;;;;;7.43;3.50;;;;;;;10.48;76.09;100140.88;6247064;22;20591;-88
2022/12/05 04:05:20;;;;;;;8.47;3.43;;;;;;;10.52;75.82;100141.63;6246310;22;20180;-89
2022/12/05 04:08:12;;;;;;;8.53;2.93;;;;;;;10.51;75.66;100133.84;6246384;22;20627;-89
2022/12/05 04:10:49;;;;;;;5.53;2.50;;;;;;;10.57;74.96;100139.69;6247011;22;20152;-88
2022/12/05 04:13:30;;;;;;;9.07;3.60;;;;;;;10.55;75.16;100130.19;6246635;22;20553;-88
2022/12/05 04:19:03;;;;;;;5.83;3.37;;;;;;;10.51;75.30;100120.72;6246307;23;20144;-88
2022/12/05 04:21:39;;;;;;;6.40;3.27;;;;;;;10.51;75.27;100121.56;6250223;22;20160;-88
2022/12/05 04:27:11;;;;;;;5.43;2.97;;;;;;;10.36;76.32;100114.25;6277201;22;20151;-87
2022/12/05 04:29:51;;;;;;;5.93;2.87;;;;;;;10.31;76.20;100114.44;6250055;22;20587;-88
2022/12/05 04:32:19;;;;;;;8.27;3.87;;;;;;;10.41;75.95;100121.06;6276669;22;20147;-88
2022/12/05 04:34:54;;;;;;;7.37;3.17;;;;;;;10.47;75.43;100128.69;6276697;22;20219;-88
2022/12/05 04:37:25;;;;;;;10.93;3.03;;;;;;;10.58;75.39;100135.31;6276996;22;20132;-88
2022/12/05 04:40:00;;;;;;;7.90;3.10;;;;;;;10.73;75.11;100134.75;6249851;22;20529;-88
2022/12/05 04:42:29;;;;;;;6.27;3.07;;;;;;;10.75;74.65;100139.00;6276675;22;20254;-89
2022/12/05 04:45:00;;;;;;;6.73;2.30;;;;;;;10.80;74.66;100141.47;6276842;22;20176;-88
2022/12/05 04:47:31;;;;;;;5.73;2.73;;;;;;;10.87;74.68;100140.34;6276639;22;20549;-88
2022/12/05 04:49:58;;;;;;;7.37;2.33;;;;;;;10.91;74.24;100140.16;6277312;22;20132;-87
2022/12/05 04:52:27;;;;;;;4.40;2.47;;;;;;;10.99;74.10;100142.47;6249769;22;20499;-88
2022/12/05 04:55:07;;;;;;;8.50;2.67;;;;;;;11.01;73.77;100141.50;6276500;22;20145;-89
2022/12/05 04:57:51;;;;;;;6.83;2.43;;;;;;;10.96;73.42;100146.06;6277199;22;20133;-89
2022/12/05 05:00:16;;;;;;;11.07;2.17;;;;;;;11.05;73.19;100150.13;6249750;22;20155;-89
2022/12/05 05:02:49;;;;;;;5.30;2.50;;;;;;;11.06;73.47;100157.06;6276440;22;20177;-89
2022/12/05 05:05:18;;;;;;;4.07;2.37;;;;;;;11.03;73.57;100159.84;6276700;22;20169;-88
2022/12/05 05:07:48;;;;;;;4.13;2.20;;;;;;;11.04;73.34;100158.91;6276882;22;20231;-88
2022/12/05 05:10:18;;;;;;;5.50;3.03;;;;;;;11.10;73.43;100156.91;6276784;22;20586;-88
2022/12/05 05:12:45;;;;;;;7.23;3.07;;;;;;;11.17;73.25;100151.41;6250556;22;20149;-90
2022/12/05 05:15:12;;;;;;;3.60;2.13;;;;;;;11.20;73.11;100146.91;6275737;22;20149;-90
2022/12/05 05:17:39;;;;;;;6.83;2.00;;;;;;;11.16;72.86;100155.81;6249574;22;20152;-89
2022/12/05 05:20:25;;;;;;;3.43;1.77;;;;;;;11.20;73.13;100157.41;6249599;22;20152;-89
2022/12/05 05:22:56;;;;;;;2.70;1.20;;;;;;;11.26;73.03;100151.91;6272792;22;20192;-89
2022/12/05 05:25:22;;;;;;;4.23;1.40;;;;;;;11.26;72.73;100157.16;6277194;22;20610;-89
2022/12/05 05:27:54;;;;;;;3.53;1.90;;;;;;;11.30;72.78;100150.88;6278410;22;20160;-89
2022/12/05 05:30:21;;;;;;;5.17;2.20;;;;;;;11.32;72.57;100153.44;6278849;22;20213;-89
2022/12/05 05:32:47;;;;;;;3.93;2.10;;;;;;;11.29;72.36;100154.44;6278743;22;20251;-89
2022/12/05 05:35:13;;;;;;;4.90;2.17;;;;;;;11.31;72.44;100157.84;6278357;22;20495;-88
2022/12/05 05:37:39;;;;;;;5.23;2.40;;;;;;;11.40;72.33;100159.25;6278730;22;20222;-89
2022/12/05 05:40:09;;;;;;;4.07;2.00;;;;;;;11.44;72.15;100145.94;6251626;22;20157;-89
2022/12/05 05:42:34;;;;;;;4.60;2.03;;;;;;;11.43;72.11;100141.59;6278271;22;20145;-89
2022/12/05 05:45:00;;;;;;;8.57;2.70;;;;;;;11.45;71.78;100145.00;6278248;22;20172;-88
2022/12/05 05:47:25;;;;;;;6.23;2.47;;;;;;;11.40;71.88;100146.97;6278290;22;20153;-88
2022/12/05 05:49:51;;;;;;;5.27;2.30;;;;;;;11.34;72.17;100139.34;6251380;22;20161;-88
2022/12/05 05:52:16;;;;;;;5.77;2.40;;;;;;;11.34;72.34;100149.00;6278258;22;20186;-88
2022/12/05 05:54:42;;;;;;;5.30;2.30;;;;;;;11.37;72.69;100141.84;6251433;22;20152;-88
2022/12/05 05:57:07;;;;;;;5.00;2.07;;;;;;;11.44;72.12;100143.31;6278124;22;20148;-89
2022/12/05 05:59:33;;;;;;;5.17;2.43;;;;;;;11.53;71.95;100144.72;6278142;22;20565;-88
2022/12/05 06:01:58;;;;;;;10.10;3.13;;;;;;;11.54;71.81;100141.16;6251325;22;20603;-89
2022/12/05 06:04:24;;;;;;;5.33;2.83;;;;;;;11.56;71.71;100142.81;6251381;22;20196;-89
2022/12/05 06:06:49;;;;;;;5.60;2.83;;;;;;;11.54;71.65;100142.03;6277967;22;20176;-88
2022/12/05 06:09:15;;;;;;;12.13;4.17;;;;;;;11.57;71.92;100141.91;6278001;22;20156;-89
2022/12/05 06:11:41;;;;;;;16.30;5.93;;;;;;;11.61;71.82;100143.47;6278045;22;20156;-89
2022/12/05 06:14:07;;;;;;;13.40;5.90;;;;;;;11.63;71.39;100146.06;6278382;22;20522;-89
2022/12/05 06:16:32;;;;;;;7.63;3.20;;;;;;;11.61;71.42;100148.72;6277956;22;20145;-89
2022/12/05 06:18:58;;;;;;;9.50;3.53;;;;;;;11.62;71.61;100152.22;6277932;22;20588;-89
2022/12/05 06:21:24;;;;;;;7.77;3.50;;;;;;;11.67;71.06;100152.88;6278600;22;20171;-88
2022/12/05 06:23:49;;;;;;;6.30;3.17;;;;;;;11.67;71.66;100152.88;6277695;22;20196;-88
2022/12/05 06:26:17;;;;;;;7.47;3.57;;;;;;;11.70;71.27;100151.03;6251127;22;20522;-89
2022/12/05 06:28:43;;;;;;;6.30;3.07;;;;;;;11.71;71.82;100159.78;6251087;22;20550;-88
2022/12/05 06:31:12;;;;;;;8.53;2.90;;;;;;;11.71;71.76;100165.03;6277852;22;20207;-89
2022/12/05 06:33:38;;;;;;;7.07;3.33;;;;;;;11.76;71.81;100155.19;6251148;22;20580;-88
2022/12/05 06:36:14;;;;;;;16.57;3.73;;;;;;;11.79;71.42;100156.81;6277399;22;20141;-89
2022/12/05 06:38:40;;;;;;;6.47;3.30;;;;;;;11.79;71.00;100167.34;6278158;22;20211;-89
2022/12/05 06:41:12;;;;;;;6.13;3.33;;;;;;;11.78;71.29;100161.22;6277783;22;20239;-89
2022/12/05 06:43:37;;;;;;;8.10;3.43;;;;;;;11.79;71.95;100169.97;6278137;22;20205;-89
2022/12/05 06:46:05;;;;;;;25.27;7.57;;;;;;;11.71;72.33;100175.53;6277598;22;20539;-89
2022/12/05 06:48:30;;;;;;;9.53;4.93;;;;;;;11.70;72.48;100184.31;6278027;22;20156;-89
2022/12/05 06:50:56;;;;;;;8.63;3.93;;;;;;;11.85;72.87;100167.06;6277984;22;20444;-88
2022/12/05 06:53:21;;;;;;;16.53;6.20;;;;;;;12.01;72.91;100176.00;6250944;22;20160;-88
2022/12/05 06:55:58;;;;;;;7.53;3.80;;;;;;;12.20;73.07;100176.97;6277614;22;20575;-88
2022/12/05 06:58:23;;;;;;;7.80;4.57;;;;;;;12.31;72.11;100178.22;6277930;22;20149;-89
2022/12/05 07:03:33;;;;;;;10.77;3.80;;;;;;;12.42;70.36;100180.34;6277980;22;20571;-88
2022/12/05 07:06:03;;;;;;;8.20;4.13;;;;;;;12.45;69.33;100182.03;6250790;22;20202;-89
2022/12/05 07:08:29;;;;;;;8.43;3.47;;;;;;;12.41;68.67;100180.44;6278216;22;20509;-89
2022/12/05 07:10:54;;;;;;;10.30;3.83;;;;;;;12.44;68.50;100181.16;6277501;22;20148;-89
2022/12/05 07:13:20;;;;;;;11.10;4.00;;;;;;;12.36;67.94;100191.16;6277820;22;20540;-89
2022/12/05 07:15:47;;;;;;;11.53;4.00;;;;;;;12.21;69.24;100194.44;6277782;22;20200;-89
2022/12/05 07:18:13;;;;;;;8.57;4.13;;;;;;;12.27;69.15;100187.13;6277733;22;20159;-88
2022/12/05 07:20:39;;;;;;;9.53;4.77;;;;;;;12.35;68.98;100194.69;6277400;22;20236;-89
2022/12/05 07:23:04;;;;;;;7.60;3.87;;;;;;;12.40;69.01;100192.72;6277363;22;20192;-89
2022/12/05 07:25:30;;;;;;;14.07;4.37;;;;;;;12.48;69.03;100201.13;6250550;22;20177;-88
2022/12/05 07:27:58;;;;;;;7.00;3.43;;;;;;;12.60;68.53;100199.75;6277711;22;20475;-89
2022/12/05 07:30:24;;;;;;;12.53;5.00;;;;;;;12.61;69.09;100207.56;6277599;22;20183;-89
2022/12/05 07:32:50;;;;;;;17.13;4.80;;;;;;;12.65;69.47;100203.91;6277230;22;20149;-88
2022/12/05 07:35:15;;;;;;;12.13;5.53;;;;;;;12.72;69.71;100204.47;6277228;22;20145;-88
2022/12/05 07:37:40;;;;;;;8.10;3.67;;;;;;;12.74;68.83;100200.00;6250500;22;20160;-89
2022/12/05 07:40:06;;;;;;;5.83;2.50;;;;;;;12.58;68.09;100197.19;6277584;22;20511;-88
2022/12/05 07:42:32;;;;;;;9.67;2.87;;;;;;;12.52;68.67;100196.63;6277469;22;20149;-89
2022/12/05 07:44:57;;;;;;;13.73;3.50;;;;;;;12.72;68.17;100205.34;6277399;22;20177;-88
2022/12/05 07:47:23;;;;;;;11.80;3.60;;;;;;;12.73;68.23;100211.47;6250268;22;20161;-89
2022/12/05 07:49:48;;;;;;;6.47;2.90;;;;;;;12.73;67.93;100212.31;6277037;22;20161;-89
2022/12/05 07:52:14;;;;;;;6.27;2.77;;;;;;;12.79;67.55;100213.78;6277036;22;20158;-89
2022/12/05 07:54:39;;;;;;;6.23;3.07;;;;;;;12.93;66.32;100207.00;6250317;22;20154;-88
2022/12/05 07:57:05;;;;;;;5.40;3.03;;;;;;;13.00;66.43;100206.75;6277123;22;20147;-88
2022/12/05 07:59:30;;;;;;;5.43;2.20;;;;;;;12.97;64.73;100214.78;6277637;22;20151;-89
2022/12/05 08:01:56;;;;;;;7.93;3.60;;;;;;;12.89;65.95;100213.31;6277027;22;20150;-89
2022/12/05 08:04:21;;;;;;;6.03;2.57;;;;;;;12.89;65.03;100210.69;6277001;22;20156;-89
2022/12/05 08:06:47;;;;;;;4.47;2.17;;;;;;;12.93;65.05;100214.91;6277208;22;20597;-89
2022/12/05 08:09:12;;;;;;;8.30;2.77;;;;;;;12.99;64.81;100212.91;6277263;22;20183;-89
2022/12/05 08:11:38;;;;;;;5.80;2.77;;;;;;;12.99;64.85;100212.91;6250206;22;20153;-89
2022/12/05 08:14:04;;;;;;;8.33;4.33;;;;;;;13.01;65.95;100211.91;6250234;22;20157;-89
2022/12/05 08:16:31;;;;;;;8.10;3.70;;;;;;;12.99;65.85;100211.16;6250120;22;20146;-89
2022/12/05 08:19:03;;;;;;;9.57;3.70;;;;;;;13.09;66.12;100201.94;6250059;22;20251;-88
2022/12/05 08:21:29;;;;;;;7.70;3.63;;;;;;;13.14;65.29;100212.25;6277072;22;20651;-89
2022/12/05 08:23:55;;;;;;;9.40;3.50;;;;;;;13.10;65.15;100208.06;6249965;22;20182;-89
2022/12/05 08:26:26;;;;;;;8.43;3.80;;;;;;;12.92;65.32;100209.69;6276755;22;20169;-88
2022/12/05 08:29:07;;;;;;;6.73;3.30;;;;;;;12.87;64.76;100199.38;6277216;22;20134;-88
2022/12/05 08:31:36;;;;;;;9.40;3.63;;;;;;;12.95;64.68;100194.63;6250760;22;20148;-88
2022/12/05 08:34:01;;;;;;;7.23;3.80;;;;;;;13.00;64.78;100196.22;6249897;22;20487;-88
2022/12/05 08:36:29;;;;;;;9.93;4.10;;;;;;;12.95;64.60;100201.66;6276632;22;20170;-89
2022/12/05 08:38:56;;;;;;;4.53;2.67;;;;;;;12.92;64.63;100193.91;6276656;22;20149;-88
2022/12/05 08:41:22;;;;;;;8.97;3.40;;;;;;;12.85;65.19;100190.72;6249848;22;20157;-88
2022/12/05 08:43:48;;;;;;;9.10;3.03;;;;;;;12.84;65.49;100199.50;6276725;22;20245;-89
2022/12/05 08:46:13;;;;;;;5.90;3.20;;;;;;;12.88;65.05;100195.84;6249861;22;20677;-89
2022/12/05 08:48:39;;;;;;;7.50;3.53;;;;;;;12.84;65.56;100190.78;6250984;22;20533;-88
2022/12/05 08:51:07;;;;;;;12.70;4.47;;;;;;;12.99;65.00;100191.84;6249816;22;20569;-89
2022/12/05 08:53:33;;;;;;;6.77;3.80;;;;;;;12.86;65.16;100200.31;6276567;22;20228;-89
2022/12/05 08:56:03;;;;;;;8.07;4.80;;;;;;;12.85;64.89;100193.34;6276515;22;20150;-88
2022/12/05 08:58:29;;;;;;;8.40;4.00;;;;;;;13.05;64.83;100194.22;6249679;22;20465;-89
2022/12/05 09:01:06;;;;;;;9.97;4.50;;;;;;;13.14;64.53;100191.19;6276269;22;20156;-88
2022/12/05 09:03:31;;;;;;;17.30;5.80;;;;;;;13.26;65.19;100185.38;6276868;22;20138;-89
2022/12/05 09:06:27;;;;;;;10.20;4.90;;;;;;;13.41;65.42;100182.00;6249677;22;20183;-88
2022/12/05 09:08:54;;;;;;;9.13;5.07;;;;;;;13.42;65.43;100176.66;6245503;22;20165;-88
2022/12/05 09:11:26;;;;;;;11.60;5.07;;;;;;;13.48;65.02;100176.38;6276855;22;20160;-88
2022/12/05 09:13:54;;;;;;;14.80;6.57;;;;;;;13.48;61.82;100165.84;6249659;22;20150;-88
2022/12/05 09:16:22;;;;;;;12.97;6.63;;;;;;;13.53;62.90;100170.88;6249674;22;20159;-88
2022/12/05 09:18:49;;;;;;;10.70;5.07;;;;;;;13.65;63.72;100166.81;6276431;22;20148;-89
2022/12/05 09:21:19;;;;;;;14.87;6.20;;;;;;;13.59;63.43;100160.03;6276797;22;20174;-89
2022/12/05 09:23:45;;;;;;;14.13;6.30;;;;;;;13.29;62.48;100161.50;6244526;23;20189;-88
2022/12/05 09:26:13;;;;;;;14.93;5.93;;;;;;;13.29;62.47;100166.75;6245659;22;20595;-89
2022/12/05 09:28:39;;;;;;;16.50;6.00;;;;;;;13.30;62.97;100150.91;6244604;23;20169;-89
2022/12/05 09:31:11;;;;;;;14.30;5.67;;;;;;;13.39;62.81;100157.53;6245698;22;20151;-88
2022/12/05 09:33:38;;;;;;;13.80;5.93;;;;;;;13.54;62.97;100154.16;6245730;22;20158;-89
2022/12/05 09:36:05;;;;;;;13.67;5.77;;;;;;;13.39;61.82;100149.63;6246433;22;20187;-89
2022/12/05 09:38:31;;;;;;;13.10;7.00;;;;;;;13.07;62.23;100151.16;6245624;22;20212;-88
2022/12/05 09:42:03;;;;;;;10.80;5.87;;;;;;;12.97;62.62;100143.72;6245755;22;20233;-88
2022/12/05 09:44:32;;;;;;;12.30;6.13;;;;;;;12.76;62.83;100149.00;6245538;23;20216;-89
2022/12/05 09:47:06;;;;;;;14.30;5.70;;;;;;;12.60;63.96;100137.50;6223386;23;20589;-88
2022/12/05 09:49:34;;;;;;;19.40;7.40;;;;;;;12.77;64.56;100131.44;6245627;22;20215;-89
2022/12/05 09:52:00;;;;;;;16.53;8.47;;;;;;;12.93;63.91;100122.78;6244335;23;20265;-88
2022/12/05 09:54:27;;;;;;;20.23;7.73;;;;;;;12.87;61.57;100132.72;6245620;22;20200;-89
2022/12/05 09:56:52;;;;;;;19.93;6.77;;;;;;;12.79;62.44;100134.84;6245595;22;20146;-88
2022/12/05 09:59:19;;;;;;;13.70;6.53;;;;;;;12.99;62.79;100123.44;6245628;22;20159;-89
2022/12/05 10:01:50;;;;;;;16.80;6.10;;;;;;;13.03;63.04;100125.84;6245582;22;20147;-88
2022/12/05 10:04:30;;;;;;;16.90;7.00;;;;;;;13.06;63.02;100124.84;6245987;22;20215;-88
2022/12/05 10:07:14;;;;;;;15.33;6.97;;;;;;;13.21;62.95;100119.72;6245693;23;20169;-89
2022/12/05 10:09:53;;;;;;;13.80;6.00;;;;;;;13.16;62.72;100126.13;6245917;22;20196;-88
2022/12/05 10:12:37;;;;;;;12.97;5.77;;;;;;;13.20;62.72;100118.06;6246827;22;20139;-88
2022/12/05 10:15:24;;;;;;;16.67;7.67;;;;;;;13.25;62.65;100117.81;6247400;23;20135;-89
2022/12/05 10:17:55;;;;;;;12.03;6.33;;;;;;;13.27;62.11;100119.44;6186120;22;20156;-88
2022/12/05 10:20:28;;;;;;;13.17;5.97;;;;;;;13.43;60.88;100114.31;6247604;22;20136;-88
2022/12/05 10:23:05;;;;;;;16.57;8.13;;;;;;;13.50;61.88;100113.06;6265483;22;20163;-89
2022/12/05 10:25:33;;;;;;;14.30;6.67;;;;;;;13.55;61.74;100109.28;6251805;22;20514;-88
2022/12/05 10:28:03;;;;;;;19.37;7.43;;;;;;;13.67;60.41;100102.56;6277883;22;20467;-88
2022/12/05 10:30:35;;;;;;;11.67;6.27;;;;;;;13.70;60.78;100105.06;6278213;22;20237;-88
2022/12/05 10:33:14;;;;;;;13.50;6.67;;;;;;;13.71;60.03;100092.69;6277759;22;20148;-88
2022/12/05 10:35:43;;;;;;;13.63;6.40;;;;;;;13.74;60.47;100100.47;6250949;22;20553;-88
2022/12/05 10:38:15;;;;;;;11.87;6.87;;;;;;;13.84;61.63;100097.28;6277706;22;20151;-88
2022/12/05 10:40:50;;;;;;;13.17;6.20;;;;;;;13.81;60.54;100101.88;6251103;22;20291;-89
2022/12/05 10:43:25;;;;;;;14.93;6.40;;;;;;;13.62;59.57;100091.41;6278432;22;20136;-89
2022/12/05 10:45:50;;;;;;;14.17;6.33;;;;;;;13.61;60.08;100087.06;6278314;22;20164;-89
2022/12/05 10:48:19;;;;;;;14.63;7.20;;;;;;;13.51;59.51;100096.34;6277653;22;20184;-88
2022/12/05 10:50:48;;;;;;;15.30;7.03;;;;;;;13.69;59.54;100087.53;6278269;22;20151;-88
2022/12/05 10:53:38;;;;;;;14.37;6.77;;;;;;;13.80;61.27;100087.84;6277594;22;20163;-88
2022/12/05 10:56:39;;;;;;;17.70;8.33;;;;;;;13.90;60.91;100085.59;6233401;22;20456;-88
2022/12/05 10:59:08;;;;;;;14.00;7.00;;;;;;;13.99;60.48;100079.84;6277988;22;20137;-89
2022/12/05 11:01:36;;;;;;;14.80;6.67;;;;;;;14.03;59.60;100084.88;6277604;22;20144;-89
2022/12/05 11:04:16;;;;;;;21.33;8.97;;;;;;;14.02;58.79;100082.31;6277581;22;20492;-89
2022/12/05 11:06:52;;;;;;;23.30;9.10;;;;;;;14.14;60.02;100073.78;6250625;22;20168;-88
2022/12/05 11:09:34;;;;;;;15.13;8.13;;;;;;;14.13;59.23;100070.28;6277791;22;20132;-88
2022/12/05 11:12:13;;;;;;;16.57;6.77;;;;;;;14.02;59.16;100064.72;6277451;22;20147;-90
2022/12/05 11:14:39;;;;;;;12.03;6.10;;;;;;;14.12;58.99;100063.28;6278135;22;20141;-88
2022/12/05 11:17:05;;;;;;;14.90;6.70;;;;;;;13.88;60.05;100071.63;6250622;22;20556;-89
2022/12/05 11:19:30;;;;;;;12.53;4.67;;;;;;;13.90;59.71;100070.63;6250643;22;20149;-88
2022/12/05 11:21:57;;;;;;;12.43;4.53;;;;;;;13.60;60.00;100066.88;6277121;22;20187;-88
2022/12/05 11:24:36;;;;;;;10.90;5.17;;;;;;;13.57;60.42;100058.31;6277521;22;20150;-88
2022/12/05 11:27:14;;;;;;;12.60;5.63;;;;;;;13.33;60.27;100057.75;6277838;22;20607;-89
2022/12/05 11:29:40;;;;;;;15.97;6.70;;;;;;;13.31;61.53;100056.97;6277212;22;20256;-88
2022/12/05 11:32:18;;;;;;;16.57;6.57;;;;;;;13.46;60.41;100050.94;6250500;22;20591;-89
2022/12/05 11:35:03;;;;;;;12.40;5.87;;;;;;;13.63;60.25;100057.97;6277936;22;20515;-89
2022/12/05 11:37:36;;;;;;;20.47;7.70;;;;;;;13.70;60.22;100052.34;6277516;22;20150;-88
2022/12/05 11:40:12;;;;;;;12.90;6.93;;;;;;;13.64;59.85;100038.63;6277868;22;20139;-88
2022/12/05 11:43:06;;;;;;;18.13;8.53;;;;;;;13.80;59.00;100035.13;6277878;22;20145;-89
2022/12/05 11:46:03;;;;;;;12.63;5.93;;;;;;;13.87;59.00;100031.25;6277351;22;20595;-88
2022/12/05 11:49:07;;;;;;;12.17;6.10;;;;;;;13.95;58.95;100034.34;6277753;22;20140;-89
2022/12/05 11:51:38;;;;;;;14.67;6.47;;;;;;;14.00;57.43;100034.09;6269534;22;20166;-89